Harrow, United Kingdom

3:55 AM BST on September 02, 2015 (GMT +0100)
London Harrow | | Change Station
CLOSE
Current Station
Personal Weather Station
Location: Harrow, GREATER LONDON
Elevation: 300 ft
Nearby Weather Stations

Elev 300 ft 51.61 °N, 0.34 °W | Updated 12 seconds ago

Clear
Clear
50.0 °F
Feels Like 50.0 °F
N
1.0
Wind Variable Wind from WNW
Gusts 1.0 mph

Today
High -- | Low -- °F
--% Chance of Precip.
Yesterday
High -- | Low -- °F
Precip. -- in
6:14 AM 7:46 PM
Waning Gibbous, 84% visible
Pressure 30.06 in
Visibility -9999.0 miles
Clouds
Dew Point 48 °F
Humidity 94%
Rainfall 0.00 in
Snow Depth Not available.
UV 0.0 out of 12
Pollen Not available.
Air Quality Not available.
Flu Activity Not available.
METAR EGLL 020250Z 29003KT CAVOK 09/09 Q1018 NOSIG
Pressure 30.06 in
Visibility -9999.0 miles
Clouds
Dew Point 48 °F
Humidity 94%
Rainfall 0.00 in
Snow Depth Not available.
UV 0.0 out of 12
Pollen Not available.
Air Quality Not available.
Flu Activity Not available.
METAR EGLL 020250Z 29003KT CAVOK 09/09 Q1018 NOSIG

10-Day Weather Forecast

×

Almanac

Astronomy

Sep. 02, 2015 Rise Set
Actual Time
Civil Twilight
Nautical Twilight
Astronomical Twilight
Moon
Length of Visible Light
Length of Day
Tomorrow will be .
, % of the Moon is Illuminated

Today's Extremes

Country Highs Country Lows

Community

WunderPhotos

Upload Photos

1,851,682 photos uploaded!

WunderBlogs® & News

Nearby

Air Quality

  Air Quality AQ Index Pollutant
Not available.

Snow Depth

Station Depth Elevation

Earthquake Activity

City Distance Mag. Time & Date
Minimum magnitude displayed is 2.5.

Coastal Water Temperatures

Place Temperature

Stations

Nearby Weather Stations

Station Location Temp. Windchill Dew Point Humidity Wind Precip. Elev Updated Type